Appleton, WI (54915)

3:41 AM CDT on August 30, 2014 (GMT -0500)
Near Appleton West High School | Change Station
CLOSE
Current Station
Personal Weather Station
Location: Appleton, WI
Elevation: 814 ft
Nearby Weather Stations

Elev 814 ft 44.27 °N, 88.42 °W | Updated 3 seconds ago

Rain
Rain
68.7 °F
Feels Like 68.7 °F
N
0.0
Wind Variable Wind from SE
Gusts 0.0 mph

Today
High -- | Low -- °F
--% Chance of Precip.
Yesterday
High -- | Low -- °F
Precip. -- in
6:14 AM 7:33 PM
Waxing Crescent, 20% visible
Pressure 29.77 in
Visibility 7.0 miles
Clouds Overcast 2000 ft
Dew Point 68 °F
Humidity 97%
Rainfall 0.05 in
Snow Depth Not available.
UV 0 out of 12
Pollen .20 out of 12
PM2.5 Moderate
Flu Activity Not available.
METAR KATW 300835Z AUTO 09003KT 7SM RA OVC020 20/18 A2977 RMK AO2 LTG DSNT SW P0003

More Conditions Fewer Conditions

Pressure 29.77 in
Visibility 7.0 miles
Clouds Overcast 2000 ft
Dew Point 68 °F
Humidity 97%
Rainfall 0.05 in
Snow Depth Not available.
UV 0 out of 12
Pollen .20 out of 12
PM2.5 Moderate
Flu Activity Not available.
METAR KATW 300835Z AUTO 09003KT 7SM RA OVC020 20/18 A2977 RMK AO2 LTG DSNT SW P0003

More Conditions Fewer Conditions

10-Day Weather Forecast

Almanac

Astronomy

Aug. 30, 2014 Rise Set
Actual Time 6:14 AM CDT 7:33 PM CDT
Civil Twilight 5:44 AM CDT 8:03 PM CDT
Nautical Twilight 5:08 AM CDT 8:39 PM CDT
Astronomical Twilight 4:29 AM CDT 9:17 PM CDT
Moon 11:13 AM CDT 9:55 PM CDT
Length of Visible Light 14h 19m
Length of Day
13h 19m
Tomorrow will be 2m 55s shorter.
Waxing Crescent, 20% of the Moon is Illuminated
Today
Waxing Crescent
Sep 2
First Quarter
Sep 8
Full
Sep 15
Last Quarter
Sep 24
New

Today's Extremes

State Highs State Lows

Community

WunderPhotos

Upload Photos

1,748,474 photos uploaded!

Nearby

Air Quality

  Air Quality AQ Index Pollutant
Yesterday Good
PM2.5
Yesterday Good
OZONE
Current Moderate
PM2.5
Saturday Good
OZONE
Saturday Good
PM2.5
Sunday Moderate
OZONE
Sunday Moderate
PM2.5
Monday Good
OZONE
Monday Good
PM2.5
Tuesday Good
OZONE
Tuesday Good
PM2.5

Snow Depth

Station Depth Elevation
No new snow has been reported.

Earthquake Activity

City Distance Mag. Time & Date
No recent earthquake activity has been reported nearby.
Minimum magnitude displayed is 2.5.

Coastal Water Temperatures

Place Temperature
Menominee, MI 72.0 °F

Nearby Weather Stations